sensor_id;sensor_type;location;lat;lon;timestamp;temperature;humidity
23685;DHT22;12020;51.384;6.908;2024-01-10T00:00:19;-3.00;99.90
23685;DHT22;12020;51.384;6.908;2024-01-10T00:02:45;-3.10;99.90
23685;DHT22;12020;51.384;6.908;2024-01-10T00:05:12;-3.10;99.90
23685;DHT22;12020;51.384;6.908;2024-01-10T00:07:38;-3.10;99.90
23685;DHT22;12020;51.384;6.908;2024-01-10T00:10:09;-3.10;99.90
23685;DHT22;12020;51.384;6.908;2024-01-10T00:13:15;-3.10;99.90
23685;DHT22;12020;51.384;6.908;2024-01-10T07:49:33;-3.80;99.90
23685;DHT22;12020;51.384;6.908;2024-01-10T07:54:38;-3.90;99.90
23685;DHT22;12020;51.384;6.908;2024-01-10T08:01:16;-4.00;99.90
23685;DHT22;12020;51.384;6.908;2024-01-10T08:31:28;-3.80;99.90
23685;DHT22;12020;51.384;6.908;2024-01-10T08:36:30;-3.70;99.90
23685;DHT22;12020;51.384;6.908;2024-01-10T08:39:01;-3.70;99.90
23685;DHT22;12020;51.384;6.908;2024-01-10T08:41:32;-3.70;99.90
23685;DHT22;12020;51.384;6.908;2024-01-10T08:44:00;-3.70;99.90
23685;DHT22;12020;51.384;6.908;2024-01-10T08:46:31;-3.50;99.90
23685;DHT22;12020;51.384;6.908;2024-01-10T08:49:21;-3.70;99.90
23685;DHT22;12020;51.384;6.908;2024-01-10T08:52:41;-3.60;99.90
23685;DHT22;12020;51.384;6.908;2024-01-10T09:02:18;-3.50;99.90
23685;DHT22;12020;51.384;6.908;2024-01-10T09:11:47;-3.40;99.90
23685;DHT22;12020;51.384;6.908;2024-01-10T09:14:14;-3.00;99.90
23685;DHT22;12020;51.384;6.908;2024-01-10T09:16:45;-3.20;99.90
23685;DHT22;12020;51.384;6.908;2024-01-10T09:20:02;-3.50;99.90
23685;DHT22;12020;51.384;6.908;2024-01-10T09:23:05;-3.20;99.90
23685;DHT22;12020;51.384;6.908;2024-01-10T09:33:50;-2.50;99.90
23685;DHT22;12020;51.384;6.908;2024-01-10T09:36:29;-2.20;99.90
23685;DHT22;12020;51.384;6.908;2024-01-10T09:42:00;-2.10;99.90
23685;DHT22;12020;51.384;6.908;2024-01-10T09:44:28;-1.90;99.90
23685;DHT22;12020;51.384;6.908;2024-01-10T09:47:25;-1.80;99.90
23685;DHT22;12020;51.384;6.908;2024-01-10T09:50:38;-1.70;99.90
23685;DHT22;12020;51.384;6.908;2024-01-10T09:53:07;-1.60;99.90
23685;DHT22;12020;51.384;6.908;2024-01-10T09:56:03;-1.50;99.90
23685;DHT22;12020;51.384;6.908;2024-01-10T09:58:50;-1.50;99.90
23685;DHT22;12020;51.384;6.908;2024-01-10T10:01:38;-1.40;99.90
23685;DHT22;12020;51.384;6.908;2024-01-10T10:04:07;-1.00;99.90
23685;DHT22;12020;51.384;6.908;2024-01-10T10:09:15;-1.50;99.90
23685;DHT22;12020;51.384;6.908;2024-01-10T10:11:44;-1.40;99.90
23685;DHT22;12020;51.384;6.908;2024-01-10T10:17:24;-1.50;99.90
23685;DHT22;12020;51.384;6.908;2024-01-10T10:20:28;-1.60;99.90
23685;DHT22;12020;51.384;6.908;2024-01-10T10:27:13;-1.60;99.90
23685;DHT22;12020;51.384;6.908;2024-01-10T10:29:52;-1.70;99.90
23685;DHT22;12020;51.384;6.908;2024-01-10T10:32:39;-1.70;99.90
23685;DHT22;12020;51.384;6.908;2024-01-10T10:35:20;-1.60;99.90
23685;DHT22;12020;51.384;6.908;2024-01-10T10:38:02;-1.70;99.90
23685;DHT22;12020;51.384;6.908;2024-01-10T10:40:27;-1.70;99.90
23685;DHT22;12020;51.384;6.908;2024-01-10T10:42:57;-1.60;99.90
23685;DHT22;12020;51.384;6.908;2024-01-10T10:45:29;-1.50;99.90
23685;DHT22;12020;51.384;6.908;2024-01-10T10:47:58;-1.60;99.90
23685;DHT22;12020;51.384;6.908;2024-01-10T10:50:30;-1.50;99.90
23685;DHT22;12020;51.384;6.908;2024-01-10T10:53:14;-1.50;99.90
23685;DHT22;12020;51.384;6.908;2024-01-10T10:56:06;-1.30;99.90
23685;DHT22;12020;51.384;6.908;2024-01-10T10:58:36;-1.30;99.90
23685;DHT22;12020;51.384;6.908;2024-01-10T11:01:08;-0.90;99.90
23685;DHT22;12020;51.384;6.908;2024-01-10T11:03:38;-1.10;99.90
23685;DHT22;12020;51.384;6.908;2024-01-10T11:06:14;-1.10;99.90
23685;DHT22;12020;51.384;6.908;2024-01-10T11:09:03;-1.00;99.90
23685;DHT22;12020;51.384;6.908;2024-01-10T11:17:50;-0.60;99.90
23685;DHT22;12020;51.384;6.908;2024-01-10T11:20:57;-0.50;99.90
23685;DHT22;12020;51.384;6.908;2024-01-10T11:23:42;-0.30;99.90
23685;DHT22;12020;51.384;6.908;2024-01-10T11:26:31;-0.50;99.90
23685;DHT22;12020;51.384;6.908;2024-01-10T11:28:59;-0.40;99.90
23685;DHT22;12020;51.384;6.908;2024-01-10T11:31:33;-0.50;99.90
23685;DHT22;12020;51.384;6.908;2024-01-10T11:34:06;-0.40;99.90
23685;DHT22;12020;51.384;6.908;2024-01-10T11:36:34;-0.30;99.90
23685;DHT22;12020;51.384;6.908;2024-01-10T11:39:04;-0.30;99.90
23685;DHT22;12020;51.384;6.908;2024-01-10T11:41:38;-0.30;99.90
23685;DHT22;12020;51.384;6.908;2024-01-10T11:44:31;-0.20;99.90
23685;DHT22;12020;51.384;6.908;2024-01-10T11:46:59;-0.10;99.90
23685;DHT22;12020;51.384;6.908;2024-01-10T11:49:58;-0.20;99.90
23685;DHT22;12020;51.384;6.908;2024-01-10T11:52:52;-0.10;99.90
23685;DHT22;12020;51.384;6.908;2024-01-10T11:55:56;-0.10;99.90
23685;DHT22;12020;51.384;6.908;2024-01-10T11:58:52;0.00;99.90
23685;DHT22;12020;51.384;6.908;2024-01-10T12:01:36;0.00;99.90
23685;DHT22;12020;51.384;6.908;2024-01-10T12:04:15;0.10;99.90
23685;DHT22;12020;51.384;6.908;2024-01-10T12:06:48;0.20;99.90
23685;DHT22;12020;51.384;6.908;2024-01-10T12:09:18;0.20;99.90
23685;DHT22;12020;51.384;6.908;2024-01-10T12:11:58;0.30;99.90
23685;DHT22;12020;51.384;6.908;2024-01-10T12:14:28;0.20;99.90
23685;DHT22;12020;51.384;6.908;2024-01-10T12:16:57;0.30;99.90
23685;DHT22;12020;51.384;6.908;2024-01-10T12:19:25;0.30;99.90
23685;DHT22;12020;51.384;6.908;2024-01-10T12:22:12;0.30;99.90
23685;DHT22;12020;51.384;6.908;2024-01-10T12:24:44;0.30;99.90
23685;DHT22;12020;51.384;6.908;2024-01-10T12:27:19;0.30;99.90
23685;DHT22;12020;51.384;6.908;2024-01-10T12:30:06;0.50;99.90
23685;DHT22;12020;51.384;6.908;2024-01-10T12:32:33;0.30;99.90
23685;DHT22;12020;51.384;6.908;2024-01-10T12:35:19;0.30;99.90
23685;DHT22;12020;51.384;6.908;2024-01-10T12:37:55;0.30;99.90
23685;DHT22;12020;51.384;6.908;2024-01-10T12:40:23;0.30;99.90
23685;DHT22;12020;51.384;6.908;2024-01-10T12:43:15;0.30;99.90
23685;DHT22;12020;51.384;6.908;2024-01-10T12:45:45;0.40;99.90
23685;DHT22;12020;51.384;6.908;2024-01-10T12:48:33;0.40;99.90
23685;DHT22;12020;51.384;6.908;2024-01-10T12:51:20;0.50;99.90
23685;DHT22;12020;51.384;6.908;2024-01-10T12:53:47;0.50;99.90
23685;DHT22;12020;51.384;6.908;2024-01-10T12:56:14;0.50;99.90
23685;DHT22;12020;51.384;6.908;2024-01-10T12:58:48;0.50;99.90
23685;DHT22;12020;51.384;6.908;2024-01-10T13:01:15;0.50;99.90
23685;DHT22;12020;51.384;6.908;2024-01-10T14:40:53;1.10;99.90
23685;DHT22;12020;51.384;6.908;2024-01-10T14:43:25;1.20;99.90
23685;DHT22;12020;51.384;6.908;2024-01-10T18:35:11;-1.60;99.90
23685;DHT22;12020;51.384;6.908;2024-01-10T18:42:12;-1.70;99.90
23685;DHT22;12020;51.384;6.908;2024-01-10T18:44:39;-1.70;99.90
23685;DHT22;12020;51.384;6.908;2024-01-10T18:50:27;-1.80;99.90
23685;DHT22;12020;51.384;6.908;2024-01-10T18:53:00;-1.80;99.90
23685;DHT22;12020;51.384;6.908;2024-01-10T18:56:32;-1.80;99.90
23685;DHT22;12020;51.384;6.908;2024-01-10T18:59:29;-1.80;99.90
23685;DHT22;12020;51.384;6.908;2024-01-10T19:03:08;-1.90;99.90
23685;DHT22;12020;51.384;6.908;2024-01-10T19:05:59;-1.80;99.90
23685;DHT22;12020;51.384;6.908;2024-01-10T19:16:09;-2.00;99.90
23685;DHT22;12020;51.384;6.908;2024-01-10T19:22:32;-1.80;99.90
23685;DHT22;12020;51.384;6.908;2024-01-10T19:29:17;-1.80;99.90
23685;DHT22;12020;51.384;6.908;2024-01-10T19:32:13;-1.80;99.90
23685;DHT22;12020;51.384;6.908;2024-01-10T19:41:57;-1.90;99.90
23685;DHT22;12020;51.384;6.908;2024-01-10T19:44:51;-2.00;99.90
23685;DHT22;12020;51.384;6.908;2024-01-10T19:47:19;-2.00;99.90
23685;DHT22;12020;51.384;6.908;2024-01-10T19:53:09;-1.90;99.90
23685;DHT22;12020;51.384;6.908;2024-01-10T19:55:36;-2.00;99.90
23685;DHT22;12020;51.384;6.908;2024-01-10T19:58:02;-2.00;99.90
23685;DHT22;12020;51.384;6.908;2024-01-10T20:00:29;-2.00;99.90
23685;DHT22;12020;51.384;6.908;2024-01-10T20:02:54;-2.10;99.90
23685;DHT22;12020;51.384;6.908;2024-01-10T20:05:20;-1.90;99.90
23685;DHT22;12020;51.384;6.908;2024-01-10T20:07:47;-2.10;99.90
23685;DHT22;12020;51.384;6.908;2024-01-10T20:10:15;-1.90;99.90
23685;DHT22;12020;51.384;6.908;2024-01-10T20:12:41;-1.90;99.90
23685;DHT22;12020;51.384;6.908;2024-01-10T20:15:07;-1.70;99.90
23685;DHT22;12020;51.384;6.908;2024-01-10T20:17:39;-2.10;99.90
23685;DHT22;12020;51.384;6.908;2024-01-10T20:28:16;-2.10;99.90
23685;DHT22;12020;51.384;6.908;2024-01-10T20:31:24;-2.10;99.90
23685;DHT22;12020;51.384;6.908;2024-01-10T20:33:51;-2.10;99.90
23685;DHT22;12020;51.384;6.908;2024-01-10T20:36:18;-2.20;99.90
23685;DHT22;12020;51.384;6.908;2024-01-10T20:38:48;-2.20;99.90
23685;DHT22;12020;51.384;6.908;2024-01-10T20:42:09;-2.20;99.90
23685;DHT22;12020;51.384;6.908;2024-01-10T20:48:56;-2.20;99.90
23685;DHT22;12020;51.384;6.908;2024-01-10T20:51:27;-2.20;99.90
23685;DHT22;12020;51.384;6.908;2024-01-10T20:53:52;-2.30;99.90
23685;DHT22;12020;51.384;6.908;2024-01-10T20:56:31;-2.30;99.90
23685;DHT22;12020;51.384;6.908;2024-01-10T21:00:19;-2.30;99.90
23685;DHT22;12020;51.384;6.908;2024-01-10T21:03:56;-2.30;99.90
23685;DHT22;12020;51.384;6.908;2024-01-10T21:06:57;-2.10;99.90
23685;DHT22;12020;51.384;6.908;2024-01-10T21:10:23;-2.30;99.90
23685;DHT22;12020;51.384;6.908;2024-01-10T21:16:49;-2.30;99.90
23685;DHT22;12020;51.384;6.908;2024-01-10T21:51:03;-2.50;99.90
23685;DHT22;12020;51.384;6.908;2024-01-10T21:56:43;-2.50;99.90
23685;DHT22;12020;51.384;6.908;2024-01-10T21:59:08;-2.50;99.90
23685;DHT22;12020;51.384;6.908;2024-01-10T22:01:34;-2.50;99.90
23685;DHT22;12020;51.384;6.908;2024-01-10T22:03:59;-2.60;99.90
23685;DHT22;12020;51.384;6.908;2024-01-10T22:06:25;-2.60;99.90
23685;DHT22;12020;51.384;6.908;2024-01-10T22:08:54;-2.60;99.90
23685;DHT22;12020;51.384;6.908;2024-01-10T22:11:21;-2.60;99.90
23685;DHT22;12020;51.384;6.908;2024-01-10T22:14:01;-2.60;99.90
23685;DHT22;12020;51.384;6.908;2024-01-10T22:16:29;-2.70;99.90
23685;DHT22;12020;51.384;6.908;2024-01-10T22:18:56;-2.70;99.90
23685;DHT22;12020;51.384;6.908;2024-01-10T22:21:27;-2.50;99.90
23685;DHT22;12020;51.384;6.908;2024-01-10T22:23:59;-2.70;99.90
23685;DHT22;12020;51.384;6.908;2024-01-10T22:26:26;-2.70;99.90
